sensor_id;sensor_type;location;lat;lon;timestamp;P1;durP1;ratioP1;P2;durP2;ratioP2
12554;SDS011;6343;50.868;4.700;2023-02-20T00:00:37;14.20;;;9.10;;
12554;SDS011;6343;50.868;4.700;2023-02-20T00:03:03;15.43;;;8.83;;
12554;SDS011;6343;50.868;4.700;2023-02-20T00:05:29;13.20;;;7.93;;
12554;SDS011;6343;50.868;4.700;2023-02-20T00:07:55;13.40;;;7.97;;
12554;SDS011;6343;50.868;4.700;2023-02-20T00:10:22;14.13;;;8.23;;
12554;SDS011;6343;50.868;4.700;2023-02-20T00:12:48;15.87;;;8.63;;
12554;SDS011;6343;50.868;4.700;2023-02-20T00:15:15;11.70;;;8.10;;
12554;SDS011;6343;50.868;4.700;2023-02-20T00:17:43;13.77;;;7.83;;
12554;SDS011;6343;50.868;4.700;2023-02-20T00:20:15;13.73;;;7.73;;
12554;SDS011;6343;50.868;4.700;2023-02-20T00:22:41;14.53;;;8.20;;
12554;SDS011;6343;50.868;4.700;2023-02-20T00:25:08;11.63;;;7.60;;
12554;SDS011;6343;50.868;4.700;2023-02-20T00:27:34;11.53;;;7.73;;
12554;SDS011;6343;50.868;4.700;2023-02-20T00:30:00;13.50;;;6.80;;
12554;SDS011;6343;50.868;4.700;2023-02-20T00:32:26;11.70;;;7.67;;
12554;SDS011;6343;50.868;4.700;2023-02-20T00:34:52;13.53;;;7.27;;
12554;SDS011;6343;50.868;4.700;2023-02-20T00:37:19;12.23;;;7.37;;
12554;SDS011;6343;50.868;4.700;2023-02-20T00:39:45;12.83;;;7.10;;
12554;SDS011;6343;50.868;4.700;2023-02-20T00:42:11;12.17;;;6.67;;
12554;SDS011;6343;50.868;4.700;2023-02-20T00:44:37;10.30;;;6.00;;
12554;SDS011;6343;50.868;4.700;2023-02-20T00:47:03;11.93;;;6.30;;
12554;SDS011;6343;50.868;4.700;2023-02-20T00:49:29;13.23;;;6.70;;
12554;SDS011;6343;50.868;4.700;2023-02-20T00:51:55;9.27;;;5.70;;
12554;SDS011;6343;50.868;4.700;2023-02-20T00:54:21;12.70;;;5.90;;
12554;SDS011;6343;50.868;4.700;2023-02-20T00:56:48;13.10;;;6.50;;
12554;SDS011;6343;50.868;4.700;2023-02-20T00:59:14;11.93;;;5.93;;
12554;SDS011;6343;50.868;4.700;2023-02-20T01:01:40;9.47;;;5.43;;
12554;SDS011;6343;50.868;4.700;2023-02-20T01:04:06;10.93;;;5.50;;
12554;SDS011;6343;50.868;4.700;2023-02-20T01:06:32;13.40;;;5.37;;
12554;SDS011;6343;50.868;4.700;2023-02-20T01:08:58;13.70;;;5.20;;
12554;SDS011;6343;50.868;4.700;2023-02-20T01:11:24;12.30;;;5.57;;
12554;SDS011;6343;50.868;4.700;2023-02-20T01:13:50;10.63;;;4.97;;
12554;SDS011;6343;50.868;4.700;2023-02-20T01:16:17;12.67;;;5.80;;
12554;SDS011;6343;50.868;4.700;2023-02-20T01:18:43;11.57;;;5.30;;
12554;SDS011;6343;50.868;4.700;2023-02-20T01:21:09;7.77;;;4.53;;
12554;SDS011;6343;50.868;4.700;2023-02-20T01:23:35;14.83;;;4.97;;
12554;SDS011;6343;50.868;4.700;2023-02-20T01:26:01;13.93;;;4.80;;
12554;SDS011;6343;50.868;4.700;2023-02-20T01:28:27;9.00;;;4.70;;
12554;SDS011;6343;50.868;4.700;2023-02-20T01:30:53;14.80;;;5.40;;
12554;SDS011;6343;50.868;4.700;2023-02-20T01:33:19;8.57;;;4.83;;
12554;SDS011;6343;50.868;4.700;2023-02-20T01:35:46;11.37;;;5.10;;
12554;SDS011;6343;50.868;4.700;2023-02-20T01:38:12;14.80;;;5.40;;
12554;SDS011;6343;50.868;4.700;2023-02-20T01:40:38;8.73;;;4.53;;
12554;SDS011;6343;50.868;4.700;2023-02-20T01:43:04;11.00;;;4.97;;
12554;SDS011;6343;50.868;4.700;2023-02-20T01:45:36;12.23;;;5.33;;
12554;SDS011;6343;50.868;4.700;2023-02-20T01:48:03;11.63;;;4.73;;
12554;SDS011;6343;50.868;4.700;2023-02-20T01:52:57;13.37;;;5.30;;
12554;SDS011;6343;50.868;4.700;2023-02-20T01:55:59;11.87;;;5.73;;
12554;SDS011;6343;50.868;4.700;2023-02-20T02:00:43;15.50;;;5.83;;
12554;SDS011;6343;50.868;4.700;2023-02-20T02:03:11;10.13;;;5.67;;
12554;SDS011;6343;50.868;4.700;2023-02-20T02:05:42;10.07;;;4.93;;
12554;SDS011;6343;50.868;4.700;2023-02-20T02:08:09;12.90;;;5.40;;
12554;SDS011;6343;50.868;4.700;2023-02-20T02:10:38;12.57;;;5.80;;
12554;SDS011;6343;50.868;4.700;2023-02-20T02:13:08;16.83;;;5.97;;
12554;SDS011;6343;50.868;4.700;2023-02-20T02:15:34;8.33;;;5.60;;
12554;SDS011;6343;50.868;4.700;2023-02-20T02:20:53;10.23;;;5.57;;
12554;SDS011;6343;50.868;4.700;2023-02-20T02:33:51;14.20;;;6.30;;
12554;SDS011;6343;50.868;4.700;2023-02-20T02:36:27;14.10;;;6.27;;
12554;SDS011;6343;50.868;4.700;2023-02-20T02:38:56;15.27;;;6.77;;
12554;SDS011;6343;50.868;4.700;2023-02-20T02:44:06;10.60;;;5.93;;
12554;SDS011;6343;50.868;4.700;2023-02-20T02:46:38;12.23;;;6.10;;
12554;SDS011;6343;50.868;4.700;2023-02-20T02:49:08;13.23;;;6.90;;
12554;SDS011;6343;50.868;4.700;2023-02-20T02:51:36;14.10;;;5.80;;
12554;SDS011;6343;50.868;4.700;2023-02-20T02:54:11;9.13;;;5.80;;
12554;SDS011;6343;50.868;4.700;2023-02-20T02:56:39;10.27;;;5.53;;
12554;SDS011;6343;50.868;4.700;2023-02-20T02:59:06;10.93;;;5.83;;
12554;SDS011;6343;50.868;4.700;2023-02-20T03:01:33;10.30;;;6.17;;
12554;SDS011;6343;50.868;4.700;2023-02-20T03:04:01;11.60;;;6.07;;
12554;SDS011;6343;50.868;4.700;2023-02-20T03:06:31;13.03;;;6.90;;
12554;SDS011;6343;50.868;4.700;2023-02-20T03:09:16;13.60;;;6.40;;
12554;SDS011;6343;50.868;4.700;2023-02-20T03:11:43;7.80;;;5.60;;
12554;SDS011;6343;50.868;4.700;2023-02-20T03:14:11;10.43;;;5.90;;
12554;SDS011;6343;50.868;4.700;2023-02-20T03:17:05;10.60;;;6.40;;
12554;SDS011;6343;50.868;4.700;2023-02-20T03:19:37;14.87;;;5.87;;
12554;SDS011;6343;50.868;4.700;2023-02-20T03:22:06;13.87;;;6.30;;
12554;SDS011;6343;50.868;4.700;2023-02-20T03:24:34;12.33;;;5.83;;
12554;SDS011;6343;50.868;4.700;2023-02-20T03:27:20;10.57;;;6.00;;
12554;SDS011;6343;50.868;4.700;2023-02-20T03:29:46;13.80;;;6.40;;
12554;SDS011;6343;50.868;4.700;2023-02-20T03:32:13;19.93;;;7.30;;
12554;SDS011;6343;50.868;4.700;2023-02-20T03:34:59;15.83;;;6.53;;
12554;SDS011;6343;50.868;4.700;2023-02-20T03:37:45;10.93;;;5.50;;
12554;SDS011;6343;50.868;4.700;2023-02-20T03:40:31;11.57;;;6.00;;
12554;SDS011;6343;50.868;4.700;2023-02-20T03:43:17;11.23;;;5.77;;
12554;SDS011;6343;50.868;4.700;2023-02-20T03:45:50;13.37;;;6.20;;
12554;SDS011;6343;50.868;4.700;2023-02-20T03:49:01;12.37;;;5.37;;
12554;SDS011;6343;50.868;4.700;2023-02-20T03:51:06;11.20;;;5.70;;
12554;SDS011;6343;50.868;4.700;2023-02-20T03:53:42;9.77;;;5.40;;
12554;SDS011;6343;50.868;4.700;2023-02-20T03:56:09;10.17;;;5.33;;
12554;SDS011;6343;50.868;4.700;2023-02-20T03:58:38;12.20;;;5.47;;
12554;SDS011;6343;50.868;4.700;2023-02-20T04:01:06;10.10;;;5.07;;
12554;SDS011;6343;50.868;4.700;2023-02-20T04:03:34;12.33;;;5.33;;
12554;SDS011;6343;50.868;4.700;2023-02-20T04:06:03;7.73;;;5.50;;
12554;SDS011;6343;50.868;4.700;2023-02-20T04:08:32;9.23;;;4.73;;
12554;SDS011;6343;50.868;4.700;2023-02-20T04:11:02;9.83;;;5.90;;
12554;SDS011;6343;50.868;4.700;2023-02-20T04:13:29;11.10;;;4.90;;
12554;SDS011;6343;50.868;4.700;2023-02-20T04:15:57;11.20;;;5.00;;
12554;SDS011;6343;50.868;4.700;2023-02-20T04:18:24;11.63;;;5.23;;
12554;SDS011;6343;50.868;4.700;2023-02-20T04:20:52;11.77;;;5.40;;
12554;SDS011;6343;50.868;4.700;2023-02-20T04:23:20;14.00;;;5.40;;
12554;SDS011;6343;50.868;4.700;2023-02-20T04:28:13;10.93;;;5.40;;
12554;SDS011;6343;50.868;4.700;2023-02-20T04:30:40;9.93;;;5.60;;
12554;SDS011;6343;50.868;4.700;2023-02-20T04:33:08;14.53;;;6.53;;
12554;SDS011;6343;50.868;4.700;2023-02-20T04:35:34;14.67;;;6.40;;
12554;SDS011;6343;50.868;4.700;2023-02-20T04:38:00;13.07;;;5.93;;
12554;SDS011;6343;50.868;4.700;2023-02-20T04:40:26;13.20;;;6.07;;
12554;SDS011;6343;50.868;4.700;2023-02-20T04:42:53;10.57;;;5.40;;
12554;SDS011;6343;50.868;4.700;2023-02-20T04:45:19;12.13;;;6.47;;
12554;SDS011;6343;50.868;4.700;2023-02-20T04:47:45;13.10;;;6.80;;
12554;SDS011;6343;50.868;4.700;2023-02-20T04:50:14;12.20;;;6.00;;
12554;SDS011;6343;50.868;4.700;2023-02-20T04:52:41;12.87;;;6.07;;
12554;SDS011;6343;50.868;4.700;2023-02-20T04:55:07;12.50;;;5.93;;
12554;SDS011;6343;50.868;4.700;2023-02-20T04:57:33;11.03;;;6.53;;
12554;SDS011;6343;50.868;4.700;2023-02-20T04:59:59;14.83;;;6.60;;
12554;SDS011;6343;50.868;4.700;2023-02-20T05:02:26;13.37;;;6.40;;
12554;SDS011;6343;50.868;4.700;2023-02-20T05:04:52;13.13;;;5.97;;
12554;SDS011;6343;50.868;4.700;2023-02-20T05:07:18;12.00;;;6.27;;
12554;SDS011;6343;50.868;4.700;2023-02-20T05:09:44;13.13;;;5.53;;
12554;SDS011;6343;50.868;4.700;2023-02-20T05:12:10;14.20;;;5.53;;
12554;SDS011;6343;50.868;4.700;2023-02-20T05:14:36;12.40;;;5.87;;
12554;SDS011;6343;50.868;4.700;2023-02-20T05:17:02;9.03;;;6.03;;
12554;SDS011;6343;50.868;4.700;2023-02-20T05:19:28;9.33;;;4.80;;
12554;SDS011;6343;50.868;4.700;2023-02-20T05:21:54;15.37;;;6.40;;
12554;SDS011;6343;50.868;4.700;2023-02-20T05:24:41;10.13;;;4.97;;
12554;SDS011;6343;50.868;4.700;2023-02-20T05:27:07;10.97;;;5.53;;
12554;SDS011;6343;50.868;4.700;2023-02-20T05:29:34;12.93;;;5.47;;
12554;SDS011;6343;50.868;4.700;2023-02-20T05:32:00;12.23;;;5.63;;
12554;SDS011;6343;50.868;4.700;2023-02-20T05:34:26;11.97;;;5.43;;
12554;SDS011;6343;50.868;4.700;2023-02-20T05:36:52;10.87;;;5.30;;
12554;SDS011;6343;50.868;4.700;2023-02-20T05:39:21;11.70;;;4.60;;
12554;SDS011;6343;50.868;4.700;2023-02-20T05:41:47;10.17;;;5.40;;
12554;SDS011;6343;50.868;4.700;2023-02-20T05:44:13;14.00;;;5.53;;
12554;SDS011;6343;50.868;4.700;2023-02-20T05:46:40;11.93;;;4.87;;
12554;SDS011;6343;50.868;4.700;2023-02-20T05:49:06;8.07;;;4.10;;
12554;SDS011;6343;50.868;4.700;2023-02-20T05:51:33;11.67;;;4.87;;
12554;SDS011;6343;50.868;4.700;2023-02-20T05:53:59;10.43;;;4.90;;
12554;SDS011;6343;50.868;4.700;2023-02-20T05:56:25;9.93;;;5.23;;
12554;SDS011;6343;50.868;4.700;2023-02-20T05:58:51;15.30;;;5.57;;
12554;SDS011;6343;50.868;4.700;2023-02-20T06:01:18;13.17;;;5.30;;
12554;SDS011;6343;50.868;4.700;2023-02-20T06:03:45;9.57;;;4.33;;
12554;SDS011;6343;50.868;4.700;2023-02-20T06:06:11;14.87;;;5.10;;
12554;SDS011;6343;50.868;4.700;2023-02-20T06:08:37;12.10;;;4.57;;
12554;SDS011;6343;50.868;4.700;2023-02-20T06:11:04;15.10;;;5.13;;
12554;SDS011;6343;50.868;4.700;2023-02-20T06:13:30;9.10;;;4.60;;
12554;SDS011;6343;50.868;4.700;2023-02-20T06:15:56;9.43;;;5.07;;
12554;SDS011;6343;50.868;4.700;2023-02-20T06:18:22;10.20;;;5.40;;
12554;SDS011;6343;50.868;4.700;2023-02-20T06:20:48;13.73;;;4.90;;
12554;SDS011;6343;50.868;4.700;2023-02-20T06:23:14;12.40;;;5.13;;
12554;SDS011;6343;50.868;4.700;2023-02-20T06:25:40;23.23;;;6.10;;
12554;SDS011;6343;50.868;4.700;2023-02-20T06:28:06;25.77;;;6.50;;
12554;SDS011;6343;50.868;4.700;2023-02-20T06:30:32;12.97;;;5.03;;
12554;SDS011;6343;50.868;4.700;2023-02-20T06:32:58;24.23;;;7.67;;
12554;SDS011;6343;50.868;4.700;2023-02-20T06:35:25;25.23;;;6.43;;
12554;SDS011;6343;50.868;4.700;2023-02-20T06:37:51;14.73;;;5.83;;
12554;SDS011;6343;50.868;4.700;2023-02-20T06:40:17;16.97;;;5.50;;
12554;SDS011;6343;50.868;4.700;2023-02-20T06:42:43;9.17;;;4.33;;
12554;SDS011;6343;50.868;4.700;2023-02-20T06:45:09;12.53;;;5.63;;
12554;SDS011;6343;50.868;4.700;2023-02-20T06:47:35;9.23;;;4.77;;
12554;SDS011;6343;50.868;4.700;2023-02-20T06:50:02;16.97;;;5.40;;
12554;SDS011;6343;50.868;4.700;2023-02-20T06:52:28;11.57;;;4.70;;
12554;SDS011;6343;50.868;4.700;2023-02-20T06:54:54;10.80;;;4.53;;
12554;SDS011;6343;50.868;4.700;2023-02-20T06:57:20;7.33;;;4.67;;
12554;SDS011;6343;50.868;4.700;2023-02-20T06:59:47;10.33;;;3.90;;
12554;SDS011;6343;50.868;4.700;2023-02-20T07:02:14;10.67;;;3.90;;
12554;SDS011;6343;50.868;4.700;2023-02-20T07:04:41;10.27;;;4.30;;
12554;SDS011;6343;50.868;4.700;2023-02-20T07:07:07;8.97;;;3.90;;
12554;SDS011;6343;50.868;4.700;2023-02-20T07:09:33;6.63;;;3.63;;
12554;SDS011;6343;50.868;4.700;2023-02-20T07:11:59;16.93;;;4.73;;
12554;SDS011;6343;50.868;4.700;2023-02-20T07:14:25;13.50;;;4.20;;
12554;SDS011;6343;50.868;4.700;2023-02-20T07:16:52;9.20;;;4.00;;
12554;SDS011;6343;50.868;4.700;2023-02-20T07:19:18;9.47;;;4.17;;
12554;SDS011;6343;50.868;4.700;2023-02-20T07:21:45;8.97;;;4.10;;
12554;SDS011;6343;50.868;4.700;2023-02-20T07:24:11;10.97;;;4.03;;
12554;SDS011;6343;50.868;4.700;2023-02-20T07:26:37;13.47;;;4.60;;
12554;SDS011;6343;50.868;4.700;2023-02-20T07:29:04;9.80;;;3.97;;
12554;SDS011;6343;50.868;4.700;2023-02-20T07:31:30;10.77;;;3.80;;
12554;SDS011;6343;50.868;4.700;2023-02-20T07:33:57;9.17;;;4.10;;
12554;SDS011;6343;50.868;4.700;2023-02-20T07:36:23;8.67;;;3.60;;
12554;SDS011;6343;50.868;4.700;2023-02-20T07:38:56;11.47;;;3.87;;
12554;SDS011;6343;50.868;4.700;2023-02-20T07:41:23;9.30;;;3.80;;
12554;SDS011;6343;50.868;4.700;2023-02-20T07:43:49;7.47;;;3.70;;
12554;SDS011;6343;50.868;4.700;2023-02-20T07:46:15;10.60;;;3.60;;
12554;SDS011;6343;50.868;4.700;2023-02-20T07:48:41;8.70;;;4.30;;
12554;SDS011;6343;50.868;4.700;2023-02-20T07:51:07;10.73;;;4.07;;
12554;SDS011;6343;50.868;4.700;2023-02-20T07:53:33;12.33;;;3.90;;
12554;SDS011;6343;50.868;4.700;2023-02-20T07:55:59;11.20;;;4.43;;
12554;SDS011;6343;50.868;4.700;2023-02-20T07:58:25;9.87;;;4.00;;
12554;SDS011;6343;50.868;4.700;2023-02-20T08:00:52;7.97;;;3.97;;
12554;SDS011;6343;50.868;4.700;2023-02-20T08:03:18;8.80;;;3.90;;
12554;SDS011;6343;50.868;4.700;2023-02-20T08:05:45;8.13;;;4.37;;
12554;SDS011;6343;50.868;4.700;2023-02-20T08:08:11;12.43;;;5.03;;
12554;SDS011;6343;50.868;4.700;2023-02-20T08:10:37;12.43;;;5.43;;
12554;SDS011;6343;50.868;4.700;2023-02-20T08:13:03;16.20;;;5.97;;
12554;SDS011;6343;50.868;4.700;2023-02-20T08:15:29;10.33;;;5.10;;
12554;SDS011;6343;50.868;4.700;2023-02-20T08:17:55;18.07;;;6.13;;
12554;SDS011;6343;50.868;4.700;2023-02-20T08:20:21;12.77;;;5.00;;
12554;SDS011;6343;50.868;4.700;2023-02-20T08:22:48;16.17;;;5.20;;
12554;SDS011;6343;50.868;4.700;2023-02-20T08:25:15;12.40;;;4.63;;
12554;SDS011;6343;50.868;4.700;2023-02-20T08:27:45;13.60;;;4.53;;
12554;SDS011;6343;50.868;4.700;2023-02-20T08:30:13;12.63;;;5.00;;
12554;SDS011;6343;50.868;4.700;2023-02-20T08:32:39;13.50;;;5.37;;
12554;SDS011;6343;50.868;4.700;2023-02-20T08:35:05;8.80;;;4.30;;
12554;SDS011;6343;50.868;4.700;2023-02-20T08:37:32;6.90;;;4.10;;
12554;SDS011;6343;50.868;4.700;2023-02-20T08:39:58;11.13;;;4.50;;
12554;SDS011;6343;50.868;4.700;2023-02-20T08:42:24;11.03;;;4.70;;
12554;SDS011;6343;50.868;4.700;2023-02-20T08:44:50;7.70;;;4.10;;
12554;SDS011;6343;50.868;4.700;2023-02-20T08:47:20;10.03;;;4.33;;
12554;SDS011;6343;50.868;4.700;2023-02-20T08:49:47;16.47;;;5.70;;
12554;SDS011;6343;50.868;4.700;2023-02-20T08:52:14;10.40;;;4.87;;
12554;SDS011;6343;50.868;4.700;2023-02-20T08:54:43;9.87;;;5.20;;
12554;SDS011;6343;50.868;4.700;2023-02-20T08:57:09;13.83;;;5.53;;
12554;SDS011;6343;50.868;4.700;2023-02-20T08:59:35;10.40;;;4.53;;
12554;SDS011;6343;50.868;4.700;2023-02-20T09:02:03;11.00;;;5.30;;
12554;SDS011;6343;50.868;4.700;2023-02-20T09:04:29;14.07;;;5.53;;
12554;SDS011;6343;50.868;4.700;2023-02-20T09:06:55;10.53;;;4.90;;
12554;SDS011;6343;50.868;4.700;2023-02-20T09:09:21;9.80;;;5.20;;
12554;SDS011;6343;50.868;4.700;2023-02-20T09:11:47;13.73;;;5.50;;
12554;SDS011;6343;50.868;4.700;2023-02-20T09:14:13;13.70;;;5.30;;
12554;SDS011;6343;50.868;4.700;2023-02-20T09:16:40;10.83;;;5.23;;
12554;SDS011;6343;50.868;4.700;2023-02-20T09:19:09;14.37;;;5.50;;
12554;SDS011;6343;50.868;4.700;2023-02-20T09:21:37;14.43;;;5.70;;
12554;SDS011;6343;50.868;4.700;2023-02-20T09:24:04;12.13;;;5.07;;
12554;SDS011;6343;50.868;4.700;2023-02-20T09:26:30;12.07;;;6.13;;
12554;SDS011;6343;50.868;4.700;2023-02-20T09:28:56;8.43;;;5.50;;
12554;SDS011;6343;50.868;4.700;2023-02-20T09:31:22;14.23;;;5.47;;
12554;SDS011;6343;50.868;4.700;2023-02-20T09:33:48;13.57;;;5.33;;
12554;SDS011;6343;50.868;4.700;2023-02-20T09:36:14;12.40;;;5.33;;
12554;SDS011;6343;50.868;4.700;2023-02-20T09:38:41;11.93;;;5.83;;
12554;SDS011;6343;50.868;4.700;2023-02-20T09:41:08;10.50;;;4.50;;
12554;SDS011;6343;50.868;4.700;2023-02-20T09:43:45;12.60;;;4.63;;
12554;SDS011;6343;50.868;4.700;2023-02-20T09:46:19;10.97;;;4.80;;
12554;SDS011;6343;50.868;4.700;2023-02-20T09:51:19;15.07;;;5.30;;
12554;SDS011;6343;50.868;4.700;2023-02-20T09:56:22;13.93;;;4.47;;
12554;SDS011;6343;50.868;4.700;2023-02-20T09:58:57;12.77;;;5.60;;
12554;SDS011;6343;50.868;4.700;2023-02-20T10:01:25;13.23;;;4.70;;
12554;SDS011;6343;50.868;4.700;2023-02-20T10:06:20;9.97;;;5.07;;
12554;SDS011;6343;50.868;4.700;2023-02-20T10:08:47;11.57;;;4.73;;
12554;SDS011;6343;50.868;4.700;2023-02-20T10:11:24;14.33;;;6.33;;
12554;SDS011;6343;50.868;4.700;2023-02-20T10:13:55;11.30;;;5.00;;
12554;SDS011;6343;50.868;4.700;2023-02-20T10:23:50;12.63;;;5.80;;
12554;SDS011;6343;50.868;4.700;2023-02-20T10:26:29;11.03;;;4.67;;
12554;SDS011;6343;50.868;4.700;2023-02-20T10:29:01;17.10;;;4.70;;
12554;SDS011;6343;50.868;4.700;2023-02-20T10:31:38;12.10;;;5.10;;
12554;SDS011;6343;50.868;4.700;2023-02-20T10:34:07;9.80;;;4.57;;
12554;SDS011;6343;50.868;4.700;2023-02-20T10:36:44;14.70;;;5.20;;
12554;SDS011;6343;50.868;4.700;2023-02-20T10:39:13;14.43;;;5.37;;
12554;SDS011;6343;50.868;4.700;2023-02-20T10:47:12;12.87;;;5.77;;
12554;SDS011;6343;50.868;4.700;2023-02-20T10:52:12;9.37;;;4.80;;
12554;SDS011;6343;50.868;4.700;2023-02-20T10:54:39;19.30;;;5.10;;
12554;SDS011;6343;50.868;4.700;2023-02-20T10:57:28;10.60;;;5.43;;
12554;SDS011;6343;50.868;4.700;2023-02-20T10:59:57;10.67;;;4.90;;
12554;SDS011;6343;50.868;4.700;2023-02-20T11:02:30;9.97;;;4.90;;
12554;SDS011;6343;50.868;4.700;2023-02-20T11:05:00;9.07;;;4.17;;
12554;SDS011;6343;50.868;4.700;2023-02-20T11:07:27;7.30;;;4.33;;
12554;SDS011;6343;50.868;4.700;2023-02-20T11:09:53;12.43;;;4.50;;
12554;SDS011;6343;50.868;4.700;2023-02-20T11:12:29;10.87;;;4.93;;
12554;SDS011;6343;50.868;4.700;2023-02-20T11:14:58;11.87;;;5.17;;
12554;SDS011;6343;50.868;4.700;2023-02-20T11:17:26;8.97;;;4.33;;
12554;SDS011;6343;50.868;4.700;2023-02-20T11:19:53;10.70;;;5.00;;
12554;SDS011;6343;50.868;4.700;2023-02-20T11:25:47;7.83;;;5.30;;
12554;SDS011;6343;50.868;4.700;2023-02-20T11:27:59;10.73;;;5.30;;
12554;SDS011;6343;50.868;4.700;2023-02-20T11:32:58;12.57;;;5.37;;
12554;SDS011;6343;50.868;4.700;2023-02-20T11:35:26;7.93;;;5.37;;
12554;SDS011;6343;50.868;4.700;2023-02-20T11:40:39;10.10;;;4.70;;
12554;SDS011;6343;50.868;4.700;2023-02-20T11:46:15;9.83;;;5.43;;
12554;SDS011;6343;50.868;4.700;2023-02-20T11:51:39;12.13;;;5.27;;
12554;SDS011;6343;50.868;4.700;2023-02-20T11:54:06;22.63;;;5.50;;
12554;SDS011;6343;50.868;4.700;2023-02-20T11:56:33;9.07;;;5.27;;
12554;SDS011;6343;50.868;4.700;2023-02-20T11:59:19;12.30;;;5.50;;
12554;SDS011;6343;50.868;4.700;2023-02-20T12:01:50;13.73;;;5.30;;
12554;SDS011;6343;50.868;4.700;2023-02-20T12:04:21;15.97;;;5.50;;
12554;SDS011;6343;50.868;4.700;2023-02-20T12:06:48;14.87;;;4.70;;
12554;SDS011;6343;50.868;4.700;2023-02-20T12:09:18;11.37;;;5.33;;
12554;SDS011;6343;50.868;4.700;2023-02-20T12:11:46;11.07;;;5.27;;
12554;SDS011;6343;50.868;4.700;2023-02-20T12:14:12;9.97;;;5.60;;
12554;SDS011;6343;50.868;4.700;2023-02-20T12:27:22;14.47;;;5.43;;
12554;SDS011;6343;50.868;4.700;2023-02-20T12:38:01;12.63;;;5.30;;
12554;SDS011;6343;50.868;4.700;2023-02-20T12:42:54;15.13;;;4.30;;
12554;SDS011;6343;50.868;4.700;2023-02-20T12:45:27;13.37;;;4.63;;
12554;SDS011;6343;50.868;4.700;2023-02-20T12:50:45;12.67;;;4.23;;
12554;SDS011;6343;50.868;4.700;2023-02-20T12:53:22;13.90;;;4.60;;
12554;SDS011;6343;50.868;4.700;2023-02-20T13:01:02;10.77;;;4.23;;
12554;SDS011;6343;50.868;4.700;2023-02-20T13:06:25;10.30;;;4.40;;
12554;SDS011;6343;50.868;4.700;2023-02-20T13:08:59;11.03;;;4.67;;
12554;SDS011;6343;50.868;4.700;2023-02-20T13:11:28;9.10;;;4.00;;
12554;SDS011;6343;50.868;4.700;2023-02-20T13:14:00;9.77;;;4.17;;
12554;SDS011;6343;50.868;4.700;2023-02-20T13:16:38;8.47;;;3.67;;
12554;SDS011;6343;50.868;4.700;2023-02-20T13:19:09;9.10;;;4.10;;
12554;SDS011;6343;50.868;4.700;2023-02-20T13:21:40;10.43;;;4.47;;
12554;SDS011;6343;50.868;4.700;2023-02-20T13:26:43;13.63;;;4.30;;
12554;SDS011;6343;50.868;4.700;2023-02-20T13:29:18;12.43;;;3.63;;
12554;SDS011;6343;50.868;4.700;2023-02-20T13:36:43;18.17;;;5.43;;
12554;SDS011;6343;50.868;4.700;2023-02-20T13:55:04;10.37;;;4.50;;
12554;SDS011;6343;50.868;4.700;2023-02-20T14:00:20;10.47;;;4.20;;
12554;SDS011;6343;50.868;4.700;2023-02-20T14:02:48;14.83;;;4.63;;
12554;SDS011;6343;50.868;4.700;2023-02-20T14:05:27;8.00;;;4.03;;
12554;SDS011;6343;50.868;4.700;2023-02-20T14:07:54;10.10;;;4.87;;
12554;SDS011;6343;50.868;4.700;2023-02-20T14:12:54;9.33;;;4.20;;
12554;SDS011;6343;50.868;4.700;2023-02-20T14:15:21;13.90;;;4.93;;
12554;SDS011;6343;50.868;4.700;2023-02-20T14:17:48;8.40;;;4.73;;
12554;SDS011;6343;50.868;4.700;2023-02-20T14:20:21;9.63;;;4.30;;
12554;SDS011;6343;50.868;4.700;2023-02-20T14:22:48;9.20;;;4.90;;
12554;SDS011;6343;50.868;4.700;2023-02-20T14:25:32;9.00;;;3.83;;
12554;SDS011;6343;50.868;4.700;2023-02-20T14:28:03;6.50;;;3.80;;
12554;SDS011;6343;50.868;4.700;2023-02-20T14:30:29;7.80;;;3.50;;
12554;SDS011;6343;50.868;4.700;2023-02-20T14:32:56;14.80;;;4.13;;
12554;SDS011;6343;50.868;4.700;2023-02-20T14:40:47;7.00;;;4.17;;
12554;SDS011;6343;50.868;4.700;2023-02-20T14:43:19;8.70;;;4.17;;
12554;SDS011;6343;50.868;4.700;2023-02-20T14:45:47;10.03;;;3.70;;
12554;SDS011;6343;50.868;4.700;2023-02-20T14:48:24;8.07;;;3.80;;
12554;SDS011;6343;50.868;4.700;2023-02-20T14:51:03;7.17;;;3.77;;
12554;SDS011;6343;50.868;4.700;2023-02-20T14:53:34;8.23;;;3.53;;
12554;SDS011;6343;50.868;4.700;2023-02-20T14:56:11;6.17;;;3.70;;
12554;SDS011;6343;50.868;4.700;2023-02-20T14:58:38;7.97;;;3.80;;
12554;SDS011;6343;50.868;4.700;2023-02-20T15:01:38;9.30;;;4.50;;
12554;SDS011;6343;50.868;4.700;2023-02-20T15:04:03;5.83;;;3.57;;
12554;SDS011;6343;50.868;4.700;2023-02-20T15:06:33;6.50;;;3.70;;
12554;SDS011;6343;50.868;4.700;2023-02-20T15:09:00;6.90;;;3.80;;
12554;SDS011;6343;50.868;4.700;2023-02-20T15:11:27;6.73;;;3.77;;
12554;SDS011;6343;50.868;4.700;2023-02-20T15:13:54;10.73;;;4.00;;
12554;SDS011;6343;50.868;4.700;2023-02-20T15:16:26;7.40;;;3.63;;
12554;SDS011;6343;50.868;4.700;2023-02-20T15:18:53;7.97;;;4.60;;
12554;SDS011;6343;50.868;4.700;2023-02-20T15:21:36;8.00;;;3.93;;
12554;SDS011;6343;50.868;4.700;2023-02-20T15:26:38;7.07;;;3.97;;
12554;SDS011;6343;50.868;4.700;2023-02-20T15:29:11;9.23;;;4.00;;
12554;SDS011;6343;50.868;4.700;2023-02-20T15:31:38;13.90;;;5.33;;
12554;SDS011;6343;50.868;4.700;2023-02-20T15:34:11;11.70;;;4.40;;
12554;SDS011;6343;50.868;4.700;2023-02-20T15:36:38;7.30;;;4.67;;
12554;SDS011;6343;50.868;4.700;2023-02-20T15:39:05;5.43;;;3.97;;
12554;SDS011;6343;50.868;4.700;2023-02-20T15:41:31;8.90;;;4.30;;
12554;SDS011;6343;50.868;4.700;2023-02-20T15:43:57;7.87;;;4.30;;
12554;SDS011;6343;50.868;4.700;2023-02-20T15:46:23;10.37;;;4.60;;
12554;SDS011;6343;50.868;4.700;2023-02-20T15:48:49;17.00;;;4.70;;
12554;SDS011;6343;50.868;4.700;2023-02-20T15:51:19;11.90;;;4.67;;
12554;SDS011;6343;50.868;4.700;2023-02-20T15:53:46;8.40;;;4.70;;
12554;SDS011;6343;50.868;4.700;2023-02-20T15:56:12;9.23;;;4.67;;
12554;SDS011;6343;50.868;4.700;2023-02-20T15:58:40;9.47;;;4.77;;
12554;SDS011;6343;50.868;4.700;2023-02-20T16:01:09;5.73;;;3.80;;
12554;SDS011;6343;50.868;4.700;2023-02-20T16:03:35;10.50;;;4.70;;
12554;SDS011;6343;50.868;4.700;2023-02-20T16:06:01;7.83;;;4.33;;
12554;SDS011;6343;50.868;4.700;2023-02-20T16:08:28;6.37;;;3.90;;
12554;SDS011;6343;50.868;4.700;2023-02-20T16:10:54;8.10;;;5.07;;
12554;SDS011;6343;50.868;4.700;2023-02-20T16:15:47;6.83;;;4.90;;
12554;SDS011;6343;50.868;4.700;2023-02-20T16:18:13;6.90;;;4.17;;
12554;SDS011;6343;50.868;4.700;2023-02-20T16:20:39;6.63;;;4.50;;
12554;SDS011;6343;50.868;4.700;2023-02-20T16:23:05;8.97;;;5.07;;
12554;SDS011;6343;50.868;4.700;2023-02-20T16:25:32;6.90;;;4.90;;
12554;SDS011;6343;50.868;4.700;2023-02-20T16:28:00;10.00;;;4.70;;
12554;SDS011;6343;50.868;4.700;2023-02-20T16:30:29;8.70;;;5.17;;
12554;SDS011;6343;50.868;4.700;2023-02-20T16:32:56;8.13;;;4.83;;
12554;SDS011;6343;50.868;4.700;2023-02-20T16:35:22;11.17;;;4.83;;
12554;SDS011;6343;50.868;4.700;2023-02-20T16:37:48;10.00;;;5.07;;
12554;SDS011;6343;50.868;4.700;2023-02-20T16:40:14;10.73;;;5.30;;
12554;SDS011;6343;50.868;4.700;2023-02-20T16:42:40;14.10;;;5.57;;
12554;SDS011;6343;50.868;4.700;2023-02-20T16:45:16;7.10;;;4.97;;
12554;SDS011;6343;50.868;4.700;2023-02-20T16:47:47;8.53;;;5.17;;
12554;SDS011;6343;50.868;4.700;2023-02-20T16:50:14;8.57;;;4.93;;
12554;SDS011;6343;50.868;4.700;2023-02-20T16:52:41;9.83;;;5.63;;
12554;SDS011;6343;50.868;4.700;2023-02-20T16:57:42;9.93;;;5.80;;
12554;SDS011;6343;50.868;4.700;2023-02-20T17:00:12;19.00;;;6.20;;
12554;SDS011;6343;50.868;4.700;2023-02-20T17:02:38;8.73;;;6.27;;
12554;SDS011;6343;50.868;4.700;2023-02-20T17:05:04;11.80;;;6.30;;
12554;SDS011;6343;50.868;4.700;2023-02-20T17:08:50;7.63;;;4.50;;
12554;SDS011;6343;50.868;4.700;2023-02-20T17:11:16;6.90;;;4.33;;
12554;SDS011;6343;50.868;4.700;2023-02-20T17:13:42;7.33;;;4.50;;
12554;SDS011;6343;50.868;4.700;2023-02-20T17:16:08;10.77;;;4.53;;